Time;durP1;ratioP1;P1;durP2;ratioP2;P2;SDS_P1;SDS_P2;PMS_P1;PMS_P2;Temp;Humidity;BMP_temperature;BMP_pressure;BME280_temperature;BME280_humidity;BME280_pressure;Samples;Min_cycle;Max_cycle;Signal;HPM_P1;HPM_P2
2023/04/07 00:03:06;;;;;;;9.10;5.27;;;4.30;99.90;;;;;;10168722;29;20315;-87
2023/04/07 00:08:09;;;;;;;7.27;4.67;;;4.30;99.90;;;;;;10168218;29;20303;-87
2023/04/07 00:13:11;;;;;;;10.57;5.97;;;4.30;99.90;;;;;;10169006;29;20286;-87
2023/04/07 00:18:14;;;;;;;7.30;5.13;;;4.50;99.90;;;;;;10167865;29;20341;-87
2023/04/07 00:23:17;;;;;;;6.70;4.90;;;4.30;99.90;;;;;;10168867;29;20249;-87
2023/04/07 00:28:19;;;;;;;5.77;4.53;;;4.20;99.90;;;;;;10168560;29;20283;-87
2023/04/07 00:33:22;;;;;;;6.17;4.67;;;4.10;99.90;;;;;;10166041;29;20242;-87
2023/04/07 00:38:24;;;;;;;6.70;4.97;;;4.20;99.90;;;;;;10166564;29;20670;-87
2023/04/07 00:43:27;;;;;;;8.53;5.60;;;4.20;99.90;;;;;;10168168;29;20236;-87
2023/04/07 00:48:30;;;;;;;7.53;5.03;;;4.20;99.90;;;;;;10130488;29;20710;-87
2023/04/07 00:53:32;;;;;;;6.63;5.03;;;4.30;99.90;;;;;;10146975;29;20229;-86
2023/04/07 00:58:35;;;;;;;5.00;3.97;;;4.10;99.90;;;;;;10166418;29;20686;-87
2023/04/07 01:03:52;;;;;;;6.63;4.87;;;4.20;99.90;;;;;;10167967;29;20246;-87
2023/04/07 01:09:06;;;;;;;4.83;4.23;;;4.30;99.90;;;;;;10166576;29;20252;-87
2023/04/07 01:14:11;;;;;;;7.53;4.40;;;4.30;99.90;;;;;;10167856;29;20269;-87
2023/04/07 01:19:38;;;;;;;5.90;4.93;;;4.30;99.90;;;;;;10173847;29;20262;-87
2023/04/07 01:25:20;;;;;;;6.73;5.13;;;4.50;99.90;;;;;;10166598;29;20319;-87
2023/04/07 01:30:27;;;;;;;6.70;4.97;;;4.50;99.90;;;;;;10179973;29;20270;-87
2023/04/07 01:35:34;;;;;;;9.73;5.93;;;4.70;99.90;;;;;;10173167;29;20346;-87
2023/04/07 01:40:39;;;;;;;5.70;4.73;;;4.60;99.90;;;;;;10172973;29;20257;-87
2023/04/07 01:45:43;;;;;;;7.67;5.97;;;4.40;99.90;;;;;;10172019;29;20686;-87
2023/04/07 01:50:45;;;;;;;7.53;5.13;;;4.30;99.90;;;;;;10173260;29;20251;-87
2023/04/07 01:55:48;;;;;;;8.17;5.13;;;4.40;99.90;;;;;;10174361;29;20280;-87
2023/04/07 02:00:51;;;;;;;6.43;4.70;;;4.50;99.90;;;;;;10174489;29;20237;-87
2023/04/07 02:06:02;;;;;;;7.43;5.10;;;4.40;99.90;;;;;;10171716;29;20263;-86
2023/04/07 02:11:06;;;;;;;8.97;6.63;;;4.50;99.90;;;;;;10172851;29;20243;-87
2023/04/07 02:16:12;;;;;;;9.30;6.57;;;4.70;99.90;;;;;;10171125;29;20269;-87
2023/04/07 02:21:17;;;;;;;6.00;5.27;;;4.30;99.90;;;;;;10172128;29;20277;-86
2023/04/07 02:26:20;;;;;;;8.50;6.10;;;4.30;99.90;;;;;;10169664;29;20269;-86
2023/04/07 02:31:23;;;;;;;8.80;7.00;;;4.40;99.90;;;;;;10172676;29;20260;-86
2023/04/07 02:36:26;;;;;;;8.20;6.43;;;4.40;99.90;;;;;;10171719;29;20691;-87
2023/04/07 02:41:28;;;;;;;8.83;5.87;;;4.40;99.90;;;;;;10171959;29;20694;-87
2023/04/07 02:46:31;;;;;;;6.27;5.27;;;4.50;99.90;;;;;;10170429;29;20333;-87
2023/04/07 02:51:33;;;;;;;6.07;5.23;;;4.50;99.90;;;;;;10170234;29;20245;-87
2023/04/07 02:56:36;;;;;;;8.07;5.90;;;4.40;99.90;;;;;;10160911;29;20289;-88
2023/04/07 03:01:39;;;;;;;6.40;5.23;;;4.40;99.90;;;;;;10132581;29;20233;-87
2023/04/07 03:06:42;;;;;;;7.73;5.67;;;4.10;99.90;;;;;;10153811;29;20259;-87
2023/04/07 03:11:49;;;;;;;9.03;6.27;;;3.90;99.90;;;;;;10168946;29;20314;-87
2023/04/07 03:16:52;;;;;;;9.60;6.10;;;3.80;99.90;;;;;;10168504;29;20265;-87
2023/04/07 03:21:56;;;;;;;7.00;5.57;;;4.10;99.90;;;;;;10169504;29;20244;-87
2023/04/07 03:26:59;;;;;;;9.83;6.77;;;3.90;99.90;;;;;;10168780;29;20261;-87
2023/04/07 03:32:12;;;;;;;11.17;7.63;;;4.00;99.90;;;;;;10169583;29;20209;-88
2023/04/07 03:37:15;;;;;;;5.97;4.23;;;4.10;99.90;;;;;;10169828;29;20244;-87
2023/04/07 03:42:18;;;;;;;7.33;5.33;;;4.10;99.90;;;;;;10168952;29;20248;-87
2023/04/07 03:47:21;;;;;;;10.67;7.37;;;4.20;99.90;;;;;;10170000;29;20256;-87
2023/04/07 03:52:30;;;;;;;8.83;4.90;;;4.10;99.90;;;;;;10168652;29;20287;-88
2023/04/07 03:57:41;;;;;;;7.23;5.33;;;4.20;99.90;;;;;;10168266;29;20248;-87
2023/04/07 04:02:44;;;;;;;9.47;6.80;;;4.20;99.90;;;;;;10168325;29;20253;-87
2023/04/07 04:07:53;;;;;;;9.50;6.20;;;4.20;99.90;;;;;;10166969;29;20679;-86
2023/04/07 04:12:59;;;;;;;12.23;7.27;;;4.20;99.90;;;;;;10168313;29;20264;-86
2023/04/07 04:18:02;;;;;;;9.03;7.60;;;4.00;99.90;;;;;;10166121;29;20252;-86
2023/04/07 04:23:06;;;;;;;7.53;6.80;;;3.90;99.90;;;;;;10152390;29;20642;-87
2023/04/07 04:28:09;;;;;;;8.60;5.43;;;3.90;99.90;;;;;;10149837;29;20868;-87
2023/04/07 04:33:12;;;;;;;8.50;6.90;;;3.90;99.90;;;;;;10168057;29;20833;-87
2023/04/07 04:38:23;;;;;;;8.83;6.67;;;3.80;99.90;;;;;;10164408;29;20297;-88
2023/04/07 04:43:40;;;;;;;2.80;2.60;;;4.00;99.90;;;;;;10160073;29;20211;-88
2023/04/07 04:48:46;;;;;;;10.10;6.67;;;4.10;99.90;;;;;;10166061;29;20780;-88
2023/04/07 04:53:51;;;;;;;9.70;7.07;;;4.70;99.90;;;;;;10166787;29;20291;-88
2023/04/07 04:58:58;;;;;;;11.43;6.70;;;4.50;99.90;;;;;;10155610;29;20294;-87
2023/04/07 05:04:17;;;;;;;8.57;6.33;;;4.40;99.90;;;;;;10124357;29;20243;-88
2023/04/07 05:09:28;;;;;;;10.47;7.20;;;4.20;99.90;;;;;;10161096;29;20649;-88
2023/04/07 05:14:30;;;;;;;11.70;6.53;;;4.20;99.90;;;;;;10163898;29;20701;-88
2023/04/07 05:19:39;;;;;;;9.87;6.73;;;4.20;99.90;;;;;;10163910;29;20341;-88
2023/04/07 05:24:49;;;;;;;7.73;6.23;;;4.10;99.90;;;;;;10161238;29;20239;-88
2023/04/07 05:29:52;;;;;;;10.17;6.17;;;4.00;99.90;;;;;;10164538;29;20347;-88
2023/04/07 05:35:00;;;;;;;8.83;6.40;;;4.00;99.90;;;;;;10196530;29;20303;-87
2023/04/07 05:40:08;;;;;;;7.57;5.87;;;4.20;99.90;;;;;;10166928;29;20235;-86
2023/04/07 05:45:10;;;;;;;7.77;5.70;;;4.20;99.90;;;;;;10165999;29;20797;-86
2023/04/07 05:50:17;;;;;;;9.50;6.17;;;4.10;99.90;;;;;;10166518;29;20729;-86
2023/04/07 05:55:22;;;;;;;21.03;10.57;;;4.30;99.90;;;;;;10149795;29;20247;-86
2023/04/07 06:00:26;;;;;;;12.73;8.40;;;4.40;99.90;;;;;;10164785;29;20288;-87
2023/04/07 06:05:42;;;;;;;7.37;5.53;;;4.40;99.90;;;;;;10136431;29;20247;-87
2023/04/07 06:10:46;;;;;;;10.63;7.23;;;4.40;99.90;;;;;;10170633;29;20227;-86
2023/04/07 06:15:48;;;;;;;9.27;7.37;;;4.20;99.90;;;;;;10171108;29;20268;-87
2023/04/07 06:20:51;;;;;;;10.60;8.37;;;4.20;99.90;;;;;;10134271;29;20234;-86
2023/04/07 06:25:54;;;;;;;11.73;7.10;;;4.40;99.90;;;;;;10157926;29;20319;-87
2023/04/07 06:30:57;;;;;;;10.83;8.23;;;4.40;99.90;;;;;;10170792;29;20235;-87
2023/04/07 06:36:01;;;;;;;8.83;6.73;;;4.60;99.90;;;;;;10170882;29;20650;-87
2023/04/07 06:41:04;;;;;;;9.43;6.77;;;4.60;99.90;;;;;;10154534;29;20244;-87
2023/04/07 06:46:06;;;;;;;10.60;7.77;;;4.70;99.90;;;;;;10171433;29;20263;-87
2023/04/07 06:51:09;;;;;;;7.87;5.93;;;4.70;99.90;;;;;;10172261;29;20250;-87
2023/04/07 06:56:12;;;;;;;9.57;7.13;;;4.80;99.90;;;;;;10171277;29;20656;-87
2023/04/07 07:01:15;;;;;;;8.90;7.03;;;4.90;99.90;;;;;;10169492;29;20652;-88
2023/04/07 07:06:17;;;;;;;10.47;7.13;;;4.80;99.90;;;;;;10168477;29;20323;-90
2023/04/07 07:11:20;;;;;;;12.13;8.33;;;4.80;99.90;;;;;;10171027;29;20508;-87
2023/04/07 07:16:23;;;;;;;20.50;11.73;;;4.80;99.90;;;;;;10169116;29;20720;-87
2023/04/07 07:21:25;;;;;;;21.10;12.27;;;4.80;99.90;;;;;;10170173;29;20289;-87
2023/04/07 07:26:28;;;;;;;19.57;10.73;;;4.70;99.90;;;;;;10170856;29;20260;-87
2023/04/07 07:31:30;;;;;;;18.00;11.47;;;4.80;99.90;;;;;;10170786;29;20224;-87
2023/04/07 07:36:33;;;;;;;22.27;12.17;;;4.70;99.90;;;;;;10167842;29;20241;-87
2023/04/07 07:41:35;;;;;;;7.23;3.47;;;4.80;99.90;;;;;;10169424;29;20243;-90
2023/04/07 07:46:38;;;;;;;13.77;8.43;;;5.00;99.90;;;;;;10145643;29;20264;-88
2023/04/07 07:51:41;;;;;;;11.33;7.83;;;5.60;99.90;;;;;;10167437;29;20654;-88
2023/04/07 07:56:43;;;;;;;16.60;9.77;;;5.70;99.90;;;;;;10167695;29;20305;-88
2023/04/07 08:01:46;;;;;;;13.73;8.30;;;5.90;99.90;;;;;;10164994;29;20288;-88
2023/04/07 08:06:49;;;;;;;15.90;9.47;;;6.10;99.90;;;;;;10131837;29;20297;-88
2023/04/07 08:11:52;;;;;;;12.83;8.17;;;6.30;99.90;;;;;;10166150;29;20258;-88
2023/04/07 08:16:55;;;;;;;16.87;9.73;;;6.40;99.90;;;;;;10151259;29;20259;-87
2023/04/07 08:21:57;;;;;;;15.97;7.53;;;6.60;99.90;;;;;;10165799;29;20260;-89
2023/04/07 08:27:00;;;;;;;11.90;8.27;;;6.50;99.90;;;;;;10165858;29;20673;-87
2023/04/07 08:32:03;;;;;;;13.07;8.67;;;6.60;99.90;;;;;;10159621;29;20237;-87
2023/04/07 08:37:05;;;;;;;11.87;8.50;;;6.60;99.90;;;;;;10165181;29;20243;-88
2023/04/07 08:42:09;;;;;;;17.17;11.10;;;6.50;99.90;;;;;;10160634;29;20681;-87
2023/04/07 08:47:12;;;;;;;15.77;10.80;;;6.20;99.90;;;;;;10126968;29;20716;-88
2023/04/07 08:52:17;;;;;;;17.43;10.00;;;6.20;99.90;;;;;;10126658;29;20248;-87
2023/04/07 08:57:19;;;;;;;13.63;8.57;;;6.10;99.90;;;;;;10125629;29;20300;-87
2023/04/07 09:02:22;;;;;;;18.17;8.83;;;6.30;99.90;;;;;;10165565;29;21003;-88
2023/04/07 09:07:25;;;;;;;13.07;8.60;;;6.50;99.90;;;;;;10165529;29;20259;-88
2023/04/07 09:12:28;;;;;;;12.33;8.50;;;6.70;99.90;;;;;;10166041;29;20225;-88
2023/04/07 09:17:31;;;;;;;10.70;7.87;;;6.60;99.90;;;;;;10165488;29;20240;-87
2023/04/07 09:22:41;;;;;;;14.90;9.40;;;6.60;99.90;;;;;;10164542;29;20305;-88
2023/04/07 09:28:13;;;;;;;13.07;8.93;;;6.40;99.90;;;;;;10164505;29;20641;-88
2023/04/07 09:33:19;;;;;;;11.13;7.47;;;6.20;99.90;;;;;;10156148;29;20240;-88
2023/04/07 09:38:31;;;;;;;10.93;8.00;;;6.20;99.90;;;;;;10171376;29;20316;-87
2023/04/07 09:43:36;;;;;;;10.60;7.40;;;6.20;99.90;;;;;;10173381;29;20662;-88
2023/04/07 09:48:40;;;;;;;16.77;9.63;;;6.30;99.90;;;;;;10170559;29;20333;-87
2023/04/07 09:53:47;;;;;;;12.00;8.37;;;6.30;99.90;;;;;;10172854;29;20653;-87
2023/04/07 09:58:50;;;;;;;15.70;10.33;;;6.50;99.90;;;;;;10170537;29;20246;-87
2023/04/07 10:03:55;;;;;;;41.23;27.10;;;6.60;99.90;;;;;;10172067;29;20709;-88
2023/04/07 10:08:58;;;;;;;17.07;11.67;;;6.60;99.90;;;;;;10156559;29;20382;-89
2023/04/07 10:14:00;;;;;;;15.27;9.73;;;6.80;99.90;;;;;;10144518;29;20254;-89
2023/04/07 10:19:04;;;;;;;24.57;14.17;;;6.90;99.90;;;;;;10165011;29;20324;-88
2023/04/07 10:24:46;;;;;;;12.40;9.23;;;6.90;99.90;;;;;;10145334;29;20996;-88
2023/04/07 10:29:51;;;;;;;14.73;8.57;;;6.90;99.90;;;;;;10141840;29;20309;-88
2023/04/07 10:34:56;;;;;;;16.50;11.40;;;6.90;99.90;;;;;;10170563;29;20731;-89
2023/04/07 10:40:17;;;;;;;14.17;9.77;;;7.10;99.90;;;;;;10155270;29;20235;-87
2023/04/07 10:45:45;;;;;;;16.37;11.03;;;7.20;99.90;;;;;;10168336;29;20236;-88
2023/04/07 10:51:14;;;;;;;25.27;15.67;;;7.10;99.90;;;;;;10168806;29;20261;-88
2023/04/07 10:56:16;;;;;;;13.80;9.73;;;7.00;99.90;;;;;;10162056;29;20245;-87
2023/04/07 11:01:19;;;;;;;10.47;7.90;;;7.00;99.90;;;;;;10170231;29;20239;-87
2023/04/07 11:06:23;;;;;;;9.10;7.17;;;7.00;99.90;;;;;;10170695;29;20371;-88
2023/04/07 11:11:37;;;;;;;14.07;8.40;;;7.10;99.90;;;;;;10166944;29;20288;-87
2023/04/07 11:16:42;;;;;;;13.83;7.90;;;7.10;99.90;;;;;;10169798;29;20273;-88
2023/04/07 11:21:45;;;;;;;12.03;8.20;;;7.20;99.90;;;;;;10168103;29;20265;-88
2023/04/07 11:26:47;;;;;;;8.77;6.33;;;7.10;99.90;;;;;;10168380;29;20304;-88
2023/04/07 11:31:52;;;;;;;8.87;6.90;;;7.00;99.90;;;;;;10168498;29;20301;-88
2023/04/07 11:36:58;;;;;;;15.20;8.80;;;6.90;99.90;;;;;;10167954;29;20265;-87
2023/04/07 11:42:00;;;;;;;13.90;8.20;;;6.90;99.90;;;;;;10143709;29;20237;-87
2023/04/07 11:47:03;;;;;;;18.63;10.43;;;6.90;99.90;;;;;;10129818;29;20237;-87
2023/04/07 11:52:06;;;;;;;11.43;6.97;;;6.80;99.90;;;;;;10129452;29;20229;-88
2023/04/07 11:57:11;;;;;;;19.77;14.57;;;6.90;99.90;;;;;;10157132;29;20236;-87
2023/04/07 12:02:31;;;;;;;19.10;9.70;;;6.90;99.90;;;;;;10167580;29;20238;-87
2023/04/07 12:07:35;;;;;;;14.20;8.23;;;7.00;99.90;;;;;;10166111;29;20253;-87
2023/04/07 12:12:38;;;;;;;20.03;9.07;;;7.10;99.90;;;;;;10167090;29;20229;-87
2023/04/07 12:17:48;;;;;;;13.23;8.33;;;7.20;99.90;;;;;;10165455;29;20320;-87
2023/04/07 12:22:51;;;;;;;13.40;9.10;;;7.30;99.90;;;;;;10165569;29;20237;-87
2023/04/07 12:27:54;;;;;;;47.53;25.00;;;7.40;99.90;;;;;;10164804;29;20257;-87
2023/04/07 12:32:56;;;;;;;17.23;12.27;;;7.30;99.90;;;;;;10165980;29;20369;-87
2023/04/07 12:37:59;;;;;;;16.40;10.40;;;7.30;99.90;;;;;;10163828;29;20290;-86
2023/04/07 12:43:02;;;;;;;17.07;11.17;;;7.20;99.90;;;;;;10163895;29;20840;-88
2023/04/07 12:48:05;;;;;;;16.47;10.13;;;7.40;99.90;;;;;;10157509;29;20272;-87
2023/04/07 12:53:08;;;;;;;19.30;13.00;;;7.40;99.90;;;;;;10163090;29;20245;-87
2023/04/07 12:58:10;;;;;;;23.70;13.87;;;7.50;99.90;;;;;;10150820;29;20241;-88
2023/04/07 13:03:13;;;;;;;19.60;11.97;;;7.50;99.90;;;;;;10143704;29;20316;-88
2023/04/07 13:08:16;;;;;;;20.13;13.23;;;7.50;99.90;;;;;;10127051;29;20270;-87
2023/04/07 13:13:18;;;;;;;18.93;12.47;;;7.70;99.90;;;;;;10150008;29;20313;-87
2023/04/07 13:18:21;;;;;;;26.83;15.80;;;7.80;99.90;;;;;;10161366;29;20652;-89
2023/04/07 13:23:24;;;;;;;25.33;16.90;;;7.90;99.90;;;;;;10177622;29;20239;-89
2023/04/07 13:28:27;;;;;;;27.73;17.23;;;7.70;99.90;;;;;;10191676;29;20262;-89
2023/04/07 13:33:30;;;;;;;19.73;12.33;;;7.80;99.90;;;;;;10194482;29;20237;-87
2023/04/07 13:38:33;;;;;;;19.63;12.47;;;7.80;99.90;;;;;;10179028;29;20763;-86
2023/04/07 13:43:35;;;;;;;33.93;22.13;;;7.80;99.90;;;;;;10177906;29;20244;-87
2023/04/07 13:48:39;;;;;;;38.60;22.50;;;7.80;99.90;;;;;;10176425;29;20241;-86
2023/04/07 13:53:41;;;;;;;31.73;22.40;;;7.80;99.90;;;;;;10179017;29;20619;-87
2023/04/07 13:58:44;;;;;;;60.37;33.53;;;7.80;99.90;;;;;;10178333;29;20620;-89
2023/04/07 14:03:48;;;;;;;44.83;25.67;;;7.70;99.90;;;;;;10176738;29;20694;-89
2023/04/07 14:08:52;;;;;;;31.70;19.53;;;7.70;99.90;;;;;;10177844;29;20341;-89
2023/04/07 14:13:55;;;;;;;15.57;10.27;;;7.60;99.90;;;;;;10176619;29;20273;-84
2023/04/07 14:18:58;;;;;;;36.43;25.33;;;7.70;99.90;;;;;;10172882;29;20238;-89
2023/04/07 14:24:00;;;;;;;38.77;23.70;;;7.80;99.90;;;;;;10168345;29;20233;-89
2023/04/07 14:29:03;;;;;;;36.93;24.17;;;7.50;99.90;;;;;;10170674;29;20279;-89
2023/04/07 14:34:08;;;;;;;34.67;22.17;;;7.60;99.90;;;;;;10170722;29;20244;-92
2023/04/07 14:39:11;;;;;;;34.23;23.00;;;7.70;99.90;;;;;;10172205;29;20269;-88
2023/04/07 14:44:14;;;;;;;38.73;23.93;;;7.80;99.90;;;;;;10169920;29;20300;-88
2023/04/07 14:49:17;;;;;;;39.77;25.87;;;7.80;99.90;;;;;;10170829;29;20282;-88
2023/04/07 14:54:20;;;;;;;40.10;24.00;;;7.80;99.90;;;;;;10168723;29;20234;-88
2023/04/07 14:59:22;;;;;;;45.27;24.13;;;7.80;99.90;;;;;;10161891;29;20245;-89
2023/04/07 15:04:25;;;;;;;31.97;19.60;;;7.90;99.90;;;;;;10174271;29;20238;-90
2023/04/07 15:09:28;;;;;;;35.37;21.50;;;7.90;99.90;;;;;;10171532;29;20711;-89
2023/04/07 15:14:30;;;;;;;25.90;16.97;;;7.90;99.90;;;;;;10168047;29;20261;-88
2023/04/07 15:19:33;;;;;;;31.50;20.20;;;8.00;99.90;;;;;;10170877;29;20790;-88
2023/04/07 15:24:35;;;;;;;35.53;21.87;;;7.90;99.90;;;;;;10170433;29;20241;-88
2023/04/07 15:29:41;;;;;;;32.23;19.77;;;8.00;99.90;;;;;;10165636;29;20262;-88
2023/04/07 15:34:46;;;;;;;39.10;25.33;;;8.00;99.90;;;;;;10169156;29;20231;-88
2023/04/07 15:39:50;;;;;;;23.40;16.63;;;8.20;99.90;;;;;;10164693;29;20238;-92
2023/04/07 15:44:52;;;;;;;32.50;20.57;;;8.30;99.90;;;;;;10174909;29;20207;-93
2023/04/07 15:49:55;;;;;;;35.33;22.17;;;8.50;99.90;;;;;;10176094;29;20235;-92
2023/04/07 15:54:57;;;;;;;38.47;24.97;;;8.60;99.90;;;;;;10176480;29;20211;-94
2023/04/07 16:00:00;;;;;;;41.53;24.33;;;8.60;99.90;;;;;;10174069;29;20234;-93
2023/04/07 16:05:07;;;;;;;41.10;27.33;;;8.60;99.90;;;;;;10174335;29;20219;-93
2023/04/07 16:10:11;;;;;;;29.17;20.83;;;8.60;99.90;;;;;;10175813;29;20222;-94
2023/04/07 16:15:14;;;;;;;44.23;27.60;;;8.60;99.90;;;;;;10175782;29;20234;-93
2023/04/07 16:20:24;;;;;;;30.77;17.77;;;8.60;99.90;;;;;;10172957;29;20210;-94
2023/04/07 16:25:27;;;;;;;36.53;24.77;;;8.60;99.90;;;;;;10170008;29;20243;-93
2023/04/07 16:30:30;;;;;;;43.53;25.97;;;8.60;99.90;;;;;;10171280;29;20258;-94
2023/04/07 16:35:33;;;;;;;37.53;23.03;;;8.60;99.90;;;;;;10171342;29;20626;-93
2023/04/07 16:40:35;;;;;;;45.27;27.13;;;8.70;99.90;;;;;;10170768;29;20219;-95
2023/04/07 16:45:38;;;;;;;42.27;27.17;;;8.60;99.90;;;;;;10170763;29;20290;-93
2023/04/07 16:50:41;;;;;;;56.83;32.57;;;8.60;99.90;;;;;;10170634;29;20704;-92
2023/04/07 16:55:44;;;;;;;50.80;29.70;;;8.50;99.90;;;;;;10169994;29;20227;-93
2023/04/07 17:00:47;;;;;;;49.30;31.43;;;8.40;99.90;;;;;;10168506;29;20690;-94
2023/04/07 17:05:49;;;;;;;46.33;29.43;;;8.40;99.90;;;;;;10169260;29;20769;-93
2023/04/07 17:10:52;;;;;;;50.97;32.10;;;8.40;99.90;;;;;;10169849;29;20262;-92
2023/04/07 17:15:55;;;;;;;53.90;30.37;;;8.40;99.90;;;;;;10169689;29;20300;-93
2023/04/07 17:20:57;;;;;;;49.83;30.80;;;8.30;99.90;;;;;;10170307;29;20221;-93
2023/04/07 17:26:00;;;;;;;50.40;31.77;;;8.30;99.90;;;;;;10170249;29;20288;-93
2023/04/07 17:31:02;;;;;;;31.23;21.37;;;8.30;99.90;;;;;;10170501;29;20670;-93
2023/04/07 17:36:05;;;;;;;43.40;29.00;;;8.30;99.90;;;;;;10170255;29;20193;-94
2023/04/07 17:41:08;;;;;;;24.90;18.27;;;8.30;99.90;;;;;;10170052;29;20602;-82
2023/04/07 17:46:11;;;;;;;47.60;35.93;;;8.30;99.90;;;;;;10164846;29;20242;-82
2023/04/07 17:51:14;;;;;;;48.40;35.33;;;8.00;99.90;;;;;;10165811;29;20760;-83
2023/04/07 17:56:16;;;;;;;53.53;35.33;;;7.80;99.90;;;;;;10169771;29;20675;-83
2023/04/07 18:01:19;;;;;;;51.27;35.13;;;7.60;99.90;;;;;;10174215;29;20236;-84
2023/04/07 18:06:22;;;;;;;43.27;28.17;;;7.60;99.90;;;;;;10166622;29;20717;-83
2023/04/07 18:11:25;;;;;;;27.60;19.63;;;7.60;99.90;;;;;;10173639;29;20255;-83
2023/04/07 18:16:27;;;;;;;32.27;20.57;;;7.80;99.90;;;;;;10174072;29;20311;-82
2023/04/07 18:21:33;;;;;;;33.33;23.03;;;;;;;;;;10173134;29;20290;-82
2023/04/07 18:26:36;;;;;;;31.23;21.13;;;;;;;;;;10174139;29;20234;-83
2023/04/07 18:31:43;;;;;;;42.00;26.30;;;8.60;99.90;;;;;;10173200;29;20265;-82
2023/04/07 18:36:47;;;;;;;65.90;44.37;;;8.80;99.90;;;;;;10171585;29;20364;-83
2023/04/07 18:41:49;;;;;;;43.33;28.40;;;8.90;99.90;;;;;;10174130;29;20278;-83
2023/04/07 18:46:52;;;;;;;44.57;27.83;;;8.80;99.90;;;;;;10173607;29;20388;-82
2023/04/07 18:51:55;;;;;;;46.23;32.30;;;8.80;99.90;;;;;;10172663;29;20266;-82
2023/04/07 18:56:57;;;;;;;24.73;18.23;;;8.50;99.90;;;;;;10172341;29;20232;-82
2023/04/07 19:02:00;;;;;;;43.27;28.70;;;8.60;99.90;;;;;;10155013;29;20306;-83
2023/04/07 19:07:03;;;;;;;47.60;27.63;;;8.70;99.90;;;;;;10169093;29;20250;-83
2023/04/07 19:12:05;;;;;;;28.10;19.83;;;8.80;99.90;;;;;;10171571;29;20298;-83
2023/04/07 19:17:08;;;;;;;39.13;25.10;;;9.20;99.90;;;;;;10170114;29;21191;-83
2023/04/07 19:22:11;;;;;;;55.67;36.70;;;9.40;99.90;;;;;;10166453;29;20235;-84
2023/04/07 19:27:13;;;;;;;46.80;33.60;;;9.40;99.90;;;;;;10168948;29;20238;-83
2023/04/07 19:32:16;;;;;;;29.30;18.63;;;9.70;99.90;;;;;;10168331;29;20283;-83
2023/04/07 19:37:19;;;;;;;59.07;39.33;;;9.70;99.90;;;;;;10168595;29;20316;-82
2023/04/07 19:42:22;;;;;;;53.57;34.23;;;9.80;99.90;;;;;;10169885;29;20239;-83
2023/04/07 19:47:24;;;;;;;39.63;27.13;;;9.50;99.90;;;;;;10167431;29;20748;-83
2023/04/07 19:52:31;;;;;;;40.27;28.73;;;9.40;99.90;;;;;;10166890;29;20800;-83
2023/04/07 19:57:34;;;;;;;42.00;26.50;;;9.20;99.90;;;;;;10166515;29;20699;-82
2023/04/07 20:02:36;;;;;;;45.10;29.23;;;9.10;99.90;;;;;;10167442;29;20669;-82
2023/04/07 20:07:39;;;;;;;43.07;28.60;;;9.10;99.90;;;;;;10167727;29;20297;-82
2023/04/07 20:12:42;;;;;;;40.93;24.83;;;8.90;99.90;;;;;;10160951;29;20271;-82
2023/04/07 20:17:46;;;;;;;22.73;13.50;;;9.00;99.90;;;;;;10169087;29;20288;-82
2023/04/07 20:22:49;;;;;;;52.30;32.50;;;8.80;99.90;;;;;;10165002;29;20247;-82
2023/04/07 20:27:52;;;;;;;51.10;30.63;;;8.90;99.90;;;;;;10179159;29;20364;-82
2023/04/07 20:32:54;;;;;;;36.77;23.30;;;8.90;99.90;;;;;;10168290;29;20672;-82
2023/04/07 20:37:58;;;;;;;47.20;30.23;;;8.90;99.90;;;;;;10168484;29;20673;-82
2023/04/07 20:43:05;;;;;;;46.57;29.63;;;8.90;99.90;;;;;;10166013;29;20235;-82
2023/04/07 20:48:14;;;;;;;54.03;35.65;;;8.80;99.90;;;;;;9655321;29;10000451;-82
2023/04/07 20:53:17;;;;;;;28.87;19.33;;;8.90;99.90;;;;;;10137268;29;20992;-82
2023/04/07 20:58:19;;;;;;;53.70;35.27;;;8.80;99.90;;;;;;10163012;29;20230;-82
2023/04/07 21:03:24;;;;;;;37.33;24.23;;;8.80;99.90;;;;;;10165899;29;20758;-82
2023/04/07 21:08:27;;;;;;;43.13;29.93;;;8.60;99.90;;;;;;10165486;29;20665;-82
2023/04/07 21:13:29;;;;;;;44.67;27.70;;;8.40;99.90;;;;;;10158066;29;20721;-82
2023/04/07 21:18:32;;;;;;;29.70;20.23;;;8.40;99.90;;;;;;10125779;29;20295;-82
2023/04/07 21:23:35;;;;;;;29.23;20.07;;;8.30;99.90;;;;;;10158242;29;20243;-82
2023/04/07 21:28:39;;;;;;;55.23;33.23;;;8.50;99.90;;;;;;10163732;29;20223;-82
2023/04/07 21:33:42;;;;;;;22.93;15.60;;;8.70;99.90;;;;;;10164654;29;20263;-83
2023/04/07 21:38:44;;;;;;;48.20;32.83;;;8.90;99.90;;;;;;10170034;29;20235;-82
2023/04/07 21:43:47;;;;;;;29.10;18.20;;;8.70;99.90;;;;;;10171741;29;20246;-82
2023/04/07 21:48:49;;;;;;;30.23;21.10;;;8.80;99.90;;;;;;10169622;29;20298;-82
2023/04/07 21:53:52;;;;;;;29.80;20.80;;;9.00;99.90;;;;;;10171068;29;20781;-82
2023/04/07 21:58:55;;;;;;;33.97;23.07;;;9.00;99.90;;;;;;10171194;29;20227;-82
2023/04/07 22:03:57;;;;;;;42.13;26.77;;;9.00;99.90;;;;;;10169594;29;20255;-82
2023/04/07 22:09:00;;;;;;;22.70;15.87;;;8.80;99.90;;;;;;10154002;29;20264;-83
2023/04/07 22:14:04;;;;;;;45.30;31.40;;;8.80;99.90;;;;;;10153049;29;20271;-83
2023/04/07 22:19:06;;;;;;;34.57;23.40;;;8.80;99.90;;;;;;10170364;29;20235;-83
2023/04/07 22:24:09;;;;;;;38.30;25.27;;;9.10;99.90;;;;;;10172232;29;20291;-83
2023/04/07 22:29:11;;;;;;;44.30;29.20;;;9.10;99.90;;;;;;10171282;29;20295;-81
2023/04/07 22:34:14;;;;;;;33.33;22.77;;;9.10;99.90;;;;;;10172998;29;20263;-82
2023/04/07 22:39:17;;;;;;;20.30;11.83;;;9.40;99.90;;;;;;10171480;29;20256;-81
2023/04/07 22:44:19;;;;;;;17.73;11.50;;;9.60;99.90;;;;;;10170042;29;20275;-82
2023/04/07 22:49:22;;;;;;;18.97;13.33;;;9.00;99.90;;;;;;10172574;29;20690;-82
2023/04/07 22:54:24;;;;;;;20.60;13.10;;;8.80;99.90;;;;;;10171982;29;20258;-82
2023/04/07 22:59:27;;;;;;;23.10;13.80;;;8.60;99.90;;;;;;10168857;29;20239;-82
2023/04/07 23:04:29;;;;;;;19.63;13.57;;;8.30;99.90;;;;;;10171461;29;20697;-82
2023/04/07 23:09:32;;;;;;;20.33;14.27;;;8.00;99.90;;;;;;10171787;29;20828;-82
2023/04/07 23:14:34;;;;;;;19.30;13.43;;;8.10;99.90;;;;;;10170892;29;20331;-82
2023/04/07 23:19:37;;;;;;;20.87;14.30;;;7.70;99.90;;;;;;10171232;29;20239;-82
2023/04/07 23:24:40;;;;;;;13.67;9.77;;;6.60;99.90;;;;;;10171434;29;20291;-82
2023/04/07 23:29:43;;;;;;;14.73;9.30;;;6.10;99.90;;;;;;10143806;29;20605;-81
2023/04/07 23:34:45;;;;;;;12.47;10.43;;;6.60;99.90;;;;;;10132332;29;20287;-82
2023/04/07 23:39:48;;;;;;;13.27;9.77;;;6.60;99.90;;;;;;10146104;29;20243;-82
2023/04/07 23:44:50;;;;;;;12.57;9.43;;;6.80;99.90;;;;;;10160156;29;20259;-82
2023/04/07 23:49:53;;;;;;;18.50;13.30;;;7.10;99.90;;;;;;10170071;29;20239;-82
2023/04/07 23:54:55;;;;;;;11.60;9.17;;;7.00;99.90;;;;;;10170241;29;20235;-82
2023/04/07 23:59:58;;;;;;;14.83;10.27;;;7.00;99.90;;;;;;10169762;29;20247;-82
